Terminal Aerodrome Forecast
Issued by NWS Rapid City, SD

Home | Current Version | Previous Version | Graphics & Text | Print | Product List | Glossary On
Versions: 1 2 3 4 5 6 7 8 9 10 11 12 13 14 15 16
000
FTUS43 KUNR 222300
TAFRAP
TAF
KRAP 222320Z 2300/2324 18017KT P6SM SCT110 BKN200
     FM230100 17010KT P6SM VCTS BKN070CB BKN120
     FM230400 21010KT P6SM BKN100
     FM231400 32025G35KT P6SM BKN070 OVC150=

USA.gov is the U.S. government's official web portal to all federal, state and local government web resources and services.